Time;durP1;ratioP1;P1;durP2;ratioP2;P2;SDS_P1;SDS_P2;PMS_P1;PMS_P2;Temp;Humidity;BMP_temperature;BMP_pressure;BME280_temperature;BME280_humidity;BME280_pressure;Samples;Min_cycle;Max_cycle;Signal;HPM_P1;HPM_P2
2023/05/07 00:00:18;;;;;;;17.30;13.70;;;14.70;99.90;;;;;;5096341;28;20502;-61
2023/05/07 00:02:45;;;;;;;20.77;13.60;;;14.70;99.90;;;;;;5096327;28;20051;-61
2023/05/07 00:05:12;;;;;;;20.88;12.23;;;14.70;99.90;;;;;;5078354;28;20048;-61
2023/05/07 00:07:40;;;;;;;15.13;10.80;;;14.60;99.90;;;;;;5096356;28;20119;-61
2023/05/07 00:10:07;;;;;;;15.50;10.73;;;14.60;99.90;;;;;;5077968;28;20052;-62
2023/05/07 00:12:34;;;;;;;14.25;10.07;;;14.50;99.90;;;;;;5095818;28;20044;-61
2023/05/07 00:15:01;;;;;;;14.07;10.43;;;14.50;99.90;;;;;;5096049;28;20032;-61
2023/05/07 00:17:27;;;;;;;12.40;8.63;;;14.50;99.90;;;;;;5096083;28;20044;-62
2023/05/07 00:19:54;;;;;;;12.60;7.68;;;14.40;99.90;;;;;;5095906;28;20036;-61
2023/05/07 00:22:21;;;;;;;9.55;7.18;;;14.30;99.90;;;;;;5094853;28;20119;-60
2023/05/07 00:24:48;;;;;;;9.80;7.00;;;14.30;99.90;;;;;;5096061;28;20051;-61
2023/05/07 00:27:14;;;;;;;9.18;7.20;;;14.30;99.90;;;;;;5095753;28;20036;-61
2023/05/07 00:29:41;;;;;;;10.80;6.80;;;14.30;99.90;;;;;;5094458;28;20119;-60
2023/05/07 00:32:08;;;;;;;7.07;6.10;;;14.30;99.90;;;;;;5077354;28;20509;-60
2023/05/07 00:34:35;;;;;;;8.82;5.68;;;14.30;99.90;;;;;;5095729;28;20396;-61
2023/05/07 00:37:02;;;;;;;8.13;5.53;;;14.30;99.90;;;;;;5095629;28;20102;-59
2023/05/07 00:39:32;;;;;;;7.30;5.63;;;14.30;99.90;;;;;;5095487;28;20040;-62
2023/05/07 00:41:58;;;;;;;7.72;5.55;;;14.30;99.90;;;;;;5077172;28;20513;-61
2023/05/07 00:44:25;;;;;;;7.50;5.07;;;14.30;99.90;;;;;;5095308;28;20123;-60
2023/05/07 00:46:52;;;;;;;6.43;4.88;;;14.20;99.90;;;;;;5095458;28;20040;-60
2023/05/07 00:49:19;;;;;;;6.72;4.68;;;14.30;99.90;;;;;;5076459;28;20052;-61
2023/05/07 00:51:45;;;;;;;7.07;5.05;;;14.30;99.90;;;;;;5095028;28;20376;-62
2023/05/07 00:54:12;;;;;;;7.25;4.90;;;14.30;99.90;;;;;;5093765;28;20048;-61
2023/05/07 00:56:39;;;;;;;6.65;5.40;;;14.30;99.90;;;;;;5095292;28;20507;-60
2023/05/07 00:59:06;;;;;;;7.35;4.80;;;14.30;99.90;;;;;;5076861;28;20072;-60
2023/05/07 01:01:33;;;;;;;7.57;4.53;;;14.30;99.90;;;;;;5076833;28;20071;-62
2023/05/07 01:04:00;;;;;;;5.63;4.30;;;14.30;99.90;;;;;;5095205;28;20084;-61
2023/05/07 01:06:27;;;;;;;6.22;4.30;;;14.30;99.90;;;;;;5077000;28;20515;-62
2023/05/07 01:08:56;;;;;;;4.70;3.80;;;14.30;99.90;;;;;;5075845;28;20044;-60
2023/05/07 01:11:23;;;;;;;5.13;4.13;;;14.30;99.90;;;;;;5094946;28;20044;-60
2023/05/07 01:13:50;;;;;;;5.15;3.63;;;14.20;99.90;;;;;;5094765;28;20048;-60
2023/05/07 01:16:17;;;;;;;5.18;3.70;;;14.20;99.90;;;;;;5076744;28;20062;-62
2023/05/07 01:18:44;;;;;;;5.88;3.42;;;14.30;99.90;;;;;;5076929;28;20043;-60
2023/05/07 01:21:11;;;;;;;5.25;3.55;;;14.20;99.90;;;;;;5076452;28;20052;-61
2023/05/07 01:23:38;;;;;;;4.63;3.30;;;14.20;99.90;;;;;;5095013;28;20040;-59
2023/05/07 01:26:05;;;;;;;5.45;3.70;;;14.20;99.90;;;;;;5093546;28;21100;-61
2023/05/07 01:28:33;;;;;;;5.32;3.15;;;14.20;99.90;;;;;;5076694;28;20048;-61
2023/05/07 01:31:01;;;;;;;4.68;3.40;;;14.20;99.90;;;;;;5076277;28;20135;-59
2023/05/07 01:33:28;;;;;;;4.55;3.38;;;14.20;99.90;;;;;;5076640;28;20048;-61
2023/05/07 01:35:55;;;;;;;4.00;3.15;;;14.20;99.90;;;;;;5076247;28;20036;-60
2023/05/07 01:38:22;;;;;;;3.55;3.13;;;14.20;99.90;;;;;;5076384;28;20040;-62
2023/05/07 01:40:48;;;;;;;3.55;2.85;;;14.10;99.90;;;;;;5075998;28;20062;-61
2023/05/07 01:43:16;;;;;;;2.80;2.50;;;14.10;99.90;;;;;;5076231;28;20044;-62
2023/05/07 01:45:44;;;;;;;3.42;2.53;;;14.10;99.90;;;;;;5076226;28;20040;-60
2023/05/07 01:48:11;;;;;;;3.20;2.58;;;14.10;99.90;;;;;;5094538;28;20085;-61
2023/05/07 01:50:37;;;;;;;2.60;2.40;;;14.10;99.90;;;;;;5076053;28;20094;-61
2023/05/07 01:53:04;;;;;;;3.30;2.90;;;14.00;99.90;;;;;;5076336;28;20044;-60
2023/05/07 01:55:31;;;;;;;4.30;2.65;;;14.00;99.90;;;;;;5076399;28;20542;-61
2023/05/07 01:57:58;;;;;;;3.53;3.05;;;14.00;99.90;;;;;;5076029;28;20059;-60
2023/05/07 02:00:25;;;;;;;4.10;3.25;;;14.00;99.90;;;;;;5075923;28;20054;-61
2023/05/07 02:02:52;;;;;;;4.15;3.33;;;14.00;99.90;;;;;;5094191;28;20040;-61
2023/05/07 02:05:28;;;;;;;4.05;3.28;;;13.90;99.90;;;;;;5075799;28;20131;-61
2023/05/07 02:08:01;;;;;;;5.00;3.80;;;13.90;99.90;;;;;;5059895;28;20052;-60
2023/05/07 02:10:29;;;;;;;5.25;3.90;;;13.90;99.90;;;;;;5075517;28;20123;-61
2023/05/07 02:12:56;;;;;;;6.50;4.00;;;13.80;99.90;;;;;;5093748;28;20051;-59
2023/05/07 02:15:23;;;;;;;4.93;4.07;;;13.70;99.90;;;;;;5075737;28;20089;-61
2023/05/07 02:17:51;;;;;;;4.68;4.22;;;13.60;99.90;;;;;;5075620;28;20032;-60
2023/05/07 02:20:18;;;;;;;4.75;3.88;;;13.60;99.90;;;;;;5093755;28;20040;-60
2023/05/07 02:22:44;;;;;;;5.30;4.80;;;13.50;99.90;;;;;;5075536;28;20040;-60
2023/05/07 02:25:11;;;;;;;4.82;4.32;;;13.50;99.90;;;;;;5074855;28;20037;-61
2023/05/07 02:27:38;;;;;;;5.50;4.72;;;13.40;99.90;;;;;;5075656;28;20050;-58
2023/05/07 02:30:05;;;;;;;6.30;4.43;;;13.40;99.90;;;;;;5058656;28;20058;-59
2023/05/07 02:32:32;;;;;;;5.10;4.43;;;13.40;99.90;;;;;;5074404;28;20040;-60
2023/05/07 02:34:59;;;;;;;5.68;4.43;;;13.40;99.90;;;;;;5093482;28;20162;-60
2023/05/07 02:37:26;;;;;;;7.32;5.05;;;13.50;99.90;;;;;;5094065;28;20383;-61
2023/05/07 02:39:53;;;;;;;7.25;5.38;;;13.50;99.90;;;;;;5075474;28;20407;-60
2023/05/07 02:42:19;;;;;;;6.30;5.70;;;13.50;99.90;;;;;;5075572;28;20044;-60
2023/05/07 02:44:46;;;;;;;8.15;5.80;;;13.50;99.90;;;;;;5075760;28;20485;-60
2023/05/07 02:47:13;;;;;;;6.28;5.65;;;13.60;99.90;;;;;;5075817;28;20097;-61
2023/05/07 02:49:41;;;;;;;5.85;5.25;;;13.60;99.90;;;;;;5075386;28;20052;-61
2023/05/07 02:52:08;;;;;;;5.93;5.32;;;13.60;99.90;;;;;;5079379;28;20043;-60
2023/05/07 02:54:34;;;;;;;5.95;5.20;;;13.60;99.90;;;;;;5094803;28;20043;-61
2023/05/07 02:57:01;;;;;;;5.90;5.30;;;13.60;99.90;;;;;;5094634;28;20062;-60
2023/05/07 02:59:28;;;;;;;7.00;5.97;;;13.70;99.90;;;;;;5094745;28;20050;-60
2023/05/07 03:01:56;;;;;;;6.47;5.70;;;13.70;99.90;;;;;;5084629;28;20040;-61
2023/05/07 03:04:23;;;;;;;6.25;5.57;;;13.70;99.90;;;;;;5075209;28;20076;-59
2023/05/07 03:06:50;;;;;;;6.93;6.28;;;13.70;99.90;;;;;;5084690;28;20051;-60
2023/05/07 03:09:17;;;;;;;7.85;6.35;;;13.80;99.90;;;;;;5112883;28;20075;-61
2023/05/07 03:11:44;;;;;;;6.13;5.50;;;13.80;99.90;;;;;;5095903;28;20135;-61
2023/05/07 03:14:11;;;;;;;7.88;5.30;;;13.70;99.90;;;;;;5116680;28;20066;-60
2023/05/07 03:16:38;;;;;;;9.23;5.93;;;13.70;99.90;;;;;;5098357;28;20065;-60
2023/05/07 03:19:04;;;;;;;6.55;5.78;;;13.70;99.90;;;;;;5098478;28;20394;-60
2023/05/07 03:21:33;;;;;;;9.60;6.32;;;13.70;99.90;;;;;;5114828;28;20035;-59
2023/05/07 03:24:00;;;;;;;9.32;6.68;;;13.70;99.90;;;;;;5093775;28;20040;-61
2023/05/07 03:26:27;;;;;;;7.60;6.38;;;13.70;99.90;;;;;;5077345;28;20051;-59
2023/05/07 03:28:54;;;;;;;8.65;6.03;;;13.70;99.90;;;;;;5094494;28;20036;-59
2023/05/07 03:31:20;;;;;;;6.65;5.95;;;13.70;99.90;;;;;;5077774;28;20036;-60
2023/05/07 03:33:47;;;;;;;7.43;6.20;;;13.70;99.90;;;;;;5078883;28;20048;-61
2023/05/07 03:36:14;;;;;;;7.55;5.93;;;13.70;99.90;;;;;;5078718;28;20040;-61
2023/05/07 03:38:41;;;;;;;7.60;6.25;;;13.60;99.90;;;;;;5078594;28;20098;-61
2023/05/07 03:41:09;;;;;;;9.27;6.30;;;13.60;99.90;;;;;;5078466;28;20063;-60
2023/05/07 03:43:37;;;;;;;6.32;5.50;;;13.60;99.90;;;;;;5078488;28;20043;-59
2023/05/07 03:46:08;;;;;;;8.48;6.43;;;13.70;99.90;;;;;;5078288;28;20047;-61
2023/05/07 03:48:35;;;;;;;8.18;6.20;;;13.70;99.90;;;;;;5078480;28;20540;-60
2023/05/07 03:51:02;;;;;;;7.70;6.05;;;13.60;99.90;;;;;;5095564;28;20449;-62
2023/05/07 03:53:32;;;;;;;8.68;6.30;;;13.60;99.90;;;;;;5078362;28;20466;-60
2023/05/07 03:55:59;;;;;;;7.47;6.45;;;13.70;99.90;;;;;;5078096;28;20044;-61
2023/05/07 03:58:28;;;;;;;8.80;5.78;;;13.60;99.90;;;;;;5078197;28;20051;-61
2023/05/07 04:00:58;;;;;;;7.90;6.65;;;13.60;99.90;;;;;;5061933;28;20501;-61
2023/05/07 04:03:28;;;;;;;7.53;6.38;;;13.60;99.90;;;;;;5096416;28;20032;-61
2023/05/07 04:05:57;;;;;;;7.07;6.38;;;13.70;99.90;;;;;;5078270;28;20399;-61
2023/05/07 04:08:25;;;;;;;8.63;6.43;;;13.70;99.90;;;;;;5077824;28;20399;-61
2023/05/07 04:10:53;;;;;;;6.60;5.80;;;13.60;99.90;;;;;;5078014;28;20032;-60
2023/05/07 04:13:20;;;;;;;6.97;6.18;;;13.60;99.90;;;;;;5061066;28;20056;-60
2023/05/07 04:15:48;;;;;;;7.88;6.38;;;13.60;99.90;;;;;;5096108;28;20032;-60
2023/05/07 04:18:18;;;;;;;6.72;5.93;;;13.60;99.90;;;;;;5078097;28;20043;-60
2023/05/07 04:20:46;;;;;;;8.73;6.18;;;13.60;99.90;;;;;;5077592;28;20040;-60
2023/05/07 04:23:14;;;;;;;7.90;6.05;;;13.50;99.90;;;;;;5076785;28;20564;-60
2023/05/07 04:25:41;;;;;;;6.57;5.53;;;13.60;99.90;;;;;;5095844;28;20094;-60
2023/05/07 04:28:28;;;;;;;7.90;5.85;;;13.60;99.90;;;;;;5093873;28;20048;-61
2023/05/07 04:30:55;;;;;;;7.40;6.70;;;13.50;99.90;;;;;;5095862;28;20127;-59
2023/05/07 04:33:22;;;;;;;6.95;5.85;;;13.60;99.90;;;;;;5077305;28;20064;-59
2023/05/07 04:35:50;;;;;;;7.30;5.93;;;13.60;99.90;;;;;;5077539;28;20040;-60
2023/05/07 04:38:18;;;;;;;7.68;5.60;;;13.50;99.90;;;;;;5077365;28;20383;-61
2023/05/07 04:40:47;;;;;;;7.03;5.78;;;13.50;99.90;;;;;;5077184;28;20130;-60
2023/05/07 04:43:18;;;;;;;6.45;5.53;;;13.50;99.90;;;;;;5077279;28;20036;-59
2023/05/07 04:45:49;;;;;;;7.20;5.75;;;13.50;99.90;;;;;;5071042;28;20044;-58
2023/05/07 04:48:18;;;;;;;6.90;6.03;;;13.50;99.90;;;;;;5077170;28;20058;-61
2023/05/07 04:50:46;;;;;;;5.90;5.30;;;13.60;99.90;;;;;;5077158;28;20040;-60
2023/05/07 04:53:13;;;;;;;6.32;5.70;;;13.60;99.90;;;;;;5077099;28;20040;-61
2023/05/07 04:55:40;;;;;;;7.18;5.75;;;13.60;99.90;;;;;;5095347;28;20047;-60
2023/05/07 04:58:07;;;;;;;6.75;5.53;;;13.50;99.90;;;;;;5076965;28;20044;-59
2023/05/07 05:00:35;;;;;;;6.30;5.55;;;13.50;99.90;;;;;;5060860;28;20039;-60
2023/05/07 05:03:05;;;;;;;7.10;6.20;;;13.50;99.90;;;;;;5077128;28;20101;-58
2023/05/07 05:05:32;;;;;;;8.15;6.47;;;13.50;99.90;;;;;;5077104;28;20052;-63
2023/05/07 05:07:59;;;;;;;7.22;6.32;;;13.50;99.90;;;;;;5095198;28;20097;-60
2023/05/07 05:10:26;;;;;;;8.68;6.93;;;13.50;99.90;;;;;;5076686;28;20069;-60
2023/05/07 05:12:55;;;;;;;8.93;7.90;;;13.60;99.90;;;;;;5090813;28;20062;-61
2023/05/07 05:15:23;;;;;;;9.27;8.30;;;13.50;99.90;;;;;;5078242;28;20525;-63
2023/05/07 05:17:49;;;;;;;9.05;8.15;;;13.50;99.90;;;;;;5105032;28;20078;-63
2023/05/07 05:20:17;;;;;;;10.45;8.43;;;13.50;99.90;;;;;;5086441;28;20127;-59
2023/05/07 05:22:44;;;;;;;9.32;8.43;;;13.50;99.90;;;;;;5076725;28;20524;-61
2023/05/07 05:25:12;;;;;;;8.88;7.97;;;13.50;99.90;;;;;;5060111;28;20090;-62
2023/05/07 05:27:39;;;;;;;10.75;8.52;;;13.60;99.90;;;;;;5059870;28;20044;-62
2023/05/07 05:30:07;;;;;;;10.15;8.15;;;13.60;99.90;;;;;;5075252;28;20032;-59
2023/05/07 05:32:35;;;;;;;10.45;8.55;;;13.60;99.90;;;;;;5076310;28;20056;-61
2023/05/07 05:35:02;;;;;;;9.43;8.43;;;13.60;99.90;;;;;;5075865;28;20040;-61
2023/05/07 05:37:31;;;;;;;10.27;8.88;;;13.60;99.90;;;;;;5076311;28;20044;-62
2023/05/07 05:40:00;;;;;;;9.25;8.35;;;13.60;99.90;;;;;;5076415;28;20038;-62
2023/05/07 05:42:28;;;;;;;10.63;8.35;;;13.70;99.90;;;;;;5076313;28;20074;-60
2023/05/07 05:44:55;;;;;;;11.52;7.93;;;13.70;99.90;;;;;;5075409;28;20463;-61
2023/05/07 05:47:23;;;;;;;9.43;8.32;;;13.60;99.90;;;;;;5076288;28;20047;-62
2023/05/07 05:49:53;;;;;;;12.35;9.15;;;13.60;99.90;;;;;;5076007;28;20047;-61
2023/05/07 05:52:20;;;;;;;10.25;8.75;;;13.60;99.90;;;;;;5076521;28;20071;-61
2023/05/07 05:54:46;;;;;;;10.52;8.88;;;13.70;99.90;;;;;;5094240;28;20047;-61
2023/05/07 05:57:13;;;;;;;10.38;8.38;;;13.70;99.90;;;;;;5094371;28;20525;-61
2023/05/07 05:59:40;;;;;;;9.40;7.72;;;13.70;99.90;;;;;;5075904;28;20036;-61
2023/05/07 06:02:07;;;;;;;10.80;7.50;;;13.80;99.90;;;;;;5075957;28;20051;-61
2023/05/07 06:04:34;;;;;;;8.45;7.35;;;13.70;99.90;;;;;;5059442;28;20433;-60
2023/05/07 06:07:02;;;;;;;10.10;7.07;;;13.70;99.90;;;;;;5075790;28;20047;-61
2023/05/07 06:09:28;;;;;;;10.82;8.02;;;13.70;99.90;;;;;;5076098;28;20094;-60
2023/05/07 06:11:55;;;;;;;8.93;7.40;;;13.70;99.90;;;;;;5093837;28;20048;-61
2023/05/07 06:14:25;;;;;;;9.93;7.85;;;13.70;99.90;;;;;;5094055;28;20036;-61
2023/05/07 06:16:54;;;;;;;9.45;7.30;;;13.70;99.90;;;;;;5076102;28;20057;-60
2023/05/07 06:19:23;;;;;;;9.30;7.18;;;13.70;99.90;;;;;;5075019;28;20051;-60
2023/05/07 06:21:52;;;;;;;8.80;6.60;;;13.70;99.90;;;;;;5075810;28;20040;-60
2023/05/07 06:24:19;;;;;;;9.50;7.35;;;13.80;99.90;;;;;;5079978;28;20089;-61
2023/05/07 06:26:46;;;;;;;9.95;6.78;;;13.80;99.90;;;;;;5095454;28;20059;-60
2023/05/07 06:29:13;;;;;;;8.95;6.28;;;13.80;99.90;;;;;;5113332;28;20040;-60
2023/05/07 06:31:41;;;;;;;8.02;6.53;;;13.80;99.90;;;;;;5095023;28;20494;-61
2023/05/07 06:34:09;;;;;;;8.73;6.65;;;13.90;99.90;;;;;;5113505;28;20450;-60
2023/05/07 06:36:37;;;;;;;9.68;7.15;;;13.90;99.90;;;;;;5095020;28;20040;-60
2023/05/07 06:39:33;;;;;;;7.80;6.30;;;14.00;99.90;;;;;;5099385;28;20056;-60
2023/05/07 06:42:00;;;;;;;8.30;5.72;;;14.00;99.90;;;;;;5094914;28;20051;-59
2023/05/07 06:44:31;;;;;;;7.18;5.57;;;13.90;99.90;;;;;;5085642;28;20059;-61
2023/05/07 06:47:05;;;;;;;6.93;5.95;;;13.90;99.90;;;;;;5077662;28;20069;-60
2023/05/07 06:49:33;;;;;;;8.32;5.47;;;13.90;99.90;;;;;;5079616;28;20151;-61
2023/05/07 06:52:00;;;;;;;8.93;5.95;;;13.90;99.90;;;;;;5078705;28;20126;-61
2023/05/07 06:54:28;;;;;;;9.35;6.25;;;13.90;99.90;;;;;;5079493;28;20131;-61
2023/05/07 06:56:55;;;;;;;7.93;5.22;;;13.90;99.90;;;;;;5079401;28;20044;-61
2023/05/07 06:59:24;;;;;;;7.05;5.32;;;13.90;99.90;;;;;;5079375;28;20043;-61
2023/05/07 07:01:52;;;;;;;8.50;5.60;;;13.90;99.90;;;;;;5079328;28;20089;-60
2023/05/07 07:04:18;;;;;;;7.72;5.93;;;14.00;99.90;;;;;;5079216;28;20101;-61
2023/05/07 07:06:52;;;;;;;6.88;5.40;;;14.00;99.90;;;;;;5079191;28;20046;-62
2023/05/07 07:09:19;;;;;;;7.38;5.90;;;14.00;99.90;;;;;;5097556;28;20407;-59
2023/05/07 07:11:50;;;;;;;9.18;5.72;;;13.90;99.90;;;;;;5079005;28;20079;-61
2023/05/07 07:14:18;;;;;;;8.00;6.15;;;14.00;99.90;;;;;;5090742;28;20067;-61
2023/05/07 07:16:49;;;;;;;8.48;6.28;;;14.00;99.90;;;;;;5079500;28;20044;-60
2023/05/07 07:19:20;;;;;;;8.48;6.40;;;14.00;99.90;;;;;;5079847;28;20082;-59
2023/05/07 07:21:49;;;;;;;7.90;5.80;;;14.00;99.90;;;;;;5062723;28;20135;-62
2023/05/07 07:24:20;;;;;;;7.72;6.28;;;14.10;99.90;;;;;;5079197;28;20040;-60
2023/05/07 07:26:51;;;;;;;8.17;6.50;;;14.10;99.90;;;;;;5094394;28;20054;-62
2023/05/07 07:29:19;;;;;;;7.70;6.28;;;14.10;99.90;;;;;;5086444;28;20402;-58
2023/05/07 07:31:47;;;;;;;9.15;7.05;;;14.10;99.90;;;;;;5078940;28;20036;-60
2023/05/07 07:34:14;;;;;;;8.48;6.30;;;14.10;99.90;;;;;;5078734;28;20044;-60
2023/05/07 07:36:41;;;;;;;8.90;6.65;;;14.10;99.90;;;;;;5078888;28;20036;-61
2023/05/07 07:39:15;;;;;;;9.63;6.80;;;14.20;99.90;;;;;;5078613;28;20051;-60
2023/05/07 07:41:43;;;;;;;8.32;6.70;;;14.20;99.90;;;;;;5078589;28;20072;-61
2023/05/07 07:44:12;;;;;;;9.23;7.00;;;14.20;99.90;;;;;;5078921;28;20040;-61
2023/05/07 07:46:45;;;;;;;10.35;6.43;;;14.20;99.90;;;;;;5078560;28;20040;-61
2023/05/07 07:49:12;;;;;;;9.02;7.05;;;14.30;99.90;;;;;;5078653;28;20062;-61
2023/05/07 07:51:40;;;;;;;8.00;6.85;;;14.30;99.90;;;;;;5096742;28;20047;-61
2023/05/07 07:54:09;;;;;;;9.77;7.85;;;14.30;99.90;;;;;;5062305;28;20505;-58
2023/05/07 07:56:36;;;;;;;8.35;7.05;;;14.40;99.90;;;;;;5062255;28;20036;-61
2023/05/07 07:59:05;;;;;;;9.77;6.82;;;14.40;99.90;;;;;;5078390;28;20048;-61
2023/05/07 08:01:33;;;;;;;9.65;7.78;;;14.40;99.90;;;;;;5078074;28;20033;-60
2023/05/07 08:04:02;;;;;;;10.13;7.97;;;14.50;99.90;;;;;;5078365;28;20135;-61
2023/05/07 08:06:32;;;;;;;9.20;8.02;;;14.50;99.90;;;;;;5078180;28;20052;-61
2023/05/07 08:08:59;;;;;;;11.73;9.32;;;14.50;99.90;;;;;;5096243;28;20174;-62
2023/05/07 08:11:26;;;;;;;9.57;7.97;;;14.50;99.90;;;;;;5078039;28;20441;-62
2023/05/07 08:13:54;;;;;;;9.63;7.20;;;14.60;99.90;;;;;;5077188;28;20492;-60
2023/05/07 08:16:21;;;;;;;9.27;7.50;;;14.70;99.90;;;;;;5077990;28;20036;-60
2023/05/07 08:18:51;;;;;;;10.85;8.38;;;14.80;99.90;;;;;;5078166;28;20066;-60
2023/05/07 08:21:18;;;;;;;10.70;8.57;;;14.90;99.90;;;;;;5095891;28;20055;-61
2023/05/07 08:23:45;;;;;;;9.73;8.13;;;14.90;99.90;;;;;;5095990;28;20046;-61
2023/05/07 08:26:12;;;;;;;9.38;8.35;;;15.00;99.90;;;;;;5077913;28;20044;-60
2023/05/07 08:28:39;;;;;;;10.40;8.75;;;15.00;99.90;;;;;;5076938;28;20467;-60
2023/05/07 08:31:07;;;;;;;9.00;8.05;;;15.00;99.90;;;;;;5077728;28;20044;-62
2023/05/07 08:33:38;;;;;;;9.98;8.93;;;15.10;99.90;;;;;;5077796;28;20467;-60
2023/05/07 08:36:05;;;;;;;12.77;9.48;;;15.20;99.90;;;;;;5077463;28;20429;-61
2023/05/07 08:38:32;;;;;;;12.20;9.13;;;15.20;99.90;;;;;;5077382;28;20067;-60
2023/05/07 08:40:59;;;;;;;11.00;9.90;;;15.30;99.90;;;;;;5077379;28;20048;-61
2023/05/07 08:43:28;;;;;;;12.20;10.25;;;15.30;99.90;;;;;;5077536;28;20093;-62
2023/05/07 08:45:55;;;;;;;10.73;9.63;;;15.40;99.90;;;;;;5077525;28;20044;-61
2023/05/07 08:48:26;;;;;;;11.88;10.15;;;15.40;99.90;;;;;;5077338;28;20051;-60
2023/05/07 08:51:01;;;;;;;14.57;10.20;;;15.50;99.90;;;;;;5088943;28;20130;-61
2023/05/07 08:53:28;;;;;;;10.57;9.30;;;15.50;99.90;;;;;;5077346;28;20441;-61
2023/05/07 08:55:55;;;;;;;13.60;9.15;;;15.60;99.90;;;;;;5077487;28;20039;-61
2023/05/07 08:58:22;;;;;;;6.80;5.68;;;15.80;99.90;;;;;;5077084;28;20135;-61
2023/05/07 09:00:49;;;;;;;6.60;5.82;;;15.90;99.90;;;;;;5076745;28;20082;-62
2023/05/07 09:03:16;;;;;;;6.43;5.50;;;16.00;99.90;;;;;;5076915;28;20051;-61
2023/05/07 09:05:47;;;;;;;8.02;6.07;;;16.10;99.90;;;;;;5077020;28;20086;-60
2023/05/07 09:08:16;;;;;;;6.82;6.13;;;16.20;99.90;;;;;;5077101;28;20081;-62
2023/05/07 09:10:45;;;;;;;6.15;5.00;;;16.30;99.90;;;;;;5076225;28;20131;-62
2023/05/07 09:13:14;;;;;;;5.80;4.78;;;16.50;99.90;;;;;;5094542;28;20066;-62
2023/05/07 09:15:42;;;;;;;4.53;4.13;;;16.60;99.90;;;;;;5076421;28;20045;-62
2023/05/07 09:18:09;;;;;;;4.88;4.15;;;16.60;99.90;;;;;;5094666;28;20372;-62
2023/05/07 09:20:38;;;;;;;5.03;3.95;;;16.70;99.90;;;;;;5076572;28;20467;-63
2023/05/07 09:23:05;;;;;;;6.13;4.80;;;16.80;99.90;;;;;;5075925;28;20517;-61
2023/05/07 09:25:32;;;;;;;5.32;3.83;;;16.90;99.90;;;;;;5076945;28;20105;-62
2023/05/07 09:28:04;;;;;;;5.65;4.10;;;17.00;99.90;;;;;;5076695;28;20044;-62
2023/05/07 09:30:31;;;;;;;5.47;3.92;;;17.10;99.90;;;;;;5093541;28;20536;-62
2023/05/07 09:33:00;;;;;;;4.97;3.78;;;17.20;99.90;;;;;;5076419;28;20055;-62
2023/05/07 09:35:27;;;;;;;4.55;3.53;;;17.40;99.90;;;;;;5076258;28;20040;-62
2023/05/07 09:37:59;;;;;;;4.90;3.70;;;17.50;99.90;;;;;;5076382;28;20040;-62
2023/05/07 09:40:31;;;;;;;4.82;3.67;;;17.70;99.90;;;;;;5076105;28;20040;-62
2023/05/07 09:43:02;;;;;;;3.78;3.38;;;17.70;99.90;;;;;;5076466;28;20048;-61
2023/05/07 09:45:29;;;;;;;4.18;3.70;;;17.80;99.90;;;;;;5076252;28;20398;-62
2023/05/07 09:47:57;;;;;;;4.00;3.00;;;17.80;99.90;;;;;;5076183;28;20051;-61
2023/05/07 09:50:26;;;;;;;4.05;3.63;;;17.90;99.90;;;;;;5076016;28;20082;-59
2023/05/07 09:52:54;;;;;;;8.15;4.32;;;17.90;99.90;;;;;;5075751;28;20052;-60
2023/05/07 09:55:21;;;;;;;3.85;3.42;;;17.90;99.90;;;;;;5075972;28;20093;-60
2023/05/07 09:57:48;;;;;;;5.40;3.92;;;18.00;99.90;;;;;;5076071;28;20044;-62
2023/05/07 10:00:15;;;;;;;5.35;4.47;;;18.00;99.90;;;;;;5075836;28;20105;-62
2023/05/07 10:02:49;;;;;;;5.43;4.13;;;18.00;99.90;;;;;;5094654;28;20456;-61
2023/05/07 10:05:20;;;;;;;4.25;3.80;;;17.90;99.90;;;;;;5075924;28;20058;-60
2023/05/07 10:07:47;;;;;;;4.30;3.90;;;17.90;99.90;;;;;;5076373;28;20357;-61
2023/05/07 10:10:15;;;;;;;5.30;3.95;;;17.90;99.90;;;;;;5075913;28;20134;-61
2023/05/07 10:12:44;;;;;;;5.53;3.22;;;17.90;99.90;;;;;;5075663;28;20086;-61
2023/05/07 10:15:19;;;;;;;6.30;3.80;;;17.90;99.90;;;;;;5076043;28;20494;-61
2023/05/07 10:17:50;;;;;;;6.15;3.33;;;17.90;99.90;;;;;;5076027;28;20498;-61
2023/05/07 10:20:17;;;;;;;5.18;3.72;;;17.90;99.90;;;;;;5058725;28;20105;-59
2023/05/07 10:22:45;;;;;;;4.55;3.53;;;18.00;99.90;;;;;;5075281;28;20043;-60
2023/05/07 10:25:15;;;;;;;5.00;3.67;;;18.10;99.90;;;;;;5075917;28;20052;-60
2023/05/07 10:27:42;;;;;;;3.50;3.20;;;18.30;99.90;;;;;;5092577;28;20149;-60
2023/05/07 10:30:09;;;;;;;4.97;3.33;;;18.40;99.90;;;;;;5075654;28;20043;-59
2023/05/07 10:32:37;;;;;;;6.18;3.28;;;18.50;99.90;;;;;;5075910;28;20121;-60
2023/05/07 10:35:05;;;;;;;4.10;3.67;;;18.50;99.90;;;;;;5075366;28;20044;-61
2023/05/07 10:37:32;;;;;;;3.80;3.33;;;18.40;99.90;;;;;;5093868;28;20044;-61
2023/05/07 10:39:58;;;;;;;5.43;3.88;;;18.50;99.90;;;;;;5075555;28;20404;-61
2023/05/07 10:42:28;;;;;;;4.57;3.70;;;18.50;99.90;;;;;;5075825;28;20399;-60
2023/05/07 10:44:55;;;;;;;3.60;3.30;;;18.60;99.90;;;;;;5075628;28;20040;-60
2023/05/07 10:47:27;;;;;;;3.75;3.33;;;18.60;99.90;;;;;;5075667;28;20048;-60
2023/05/07 10:49:57;;;;;;;3.72;3.38;;;18.60;99.90;;;;;;5075605;28;20040;-61
2023/05/07 10:52:30;;;;;;;3.78;3.33;;;18.50;99.90;;;;;;5075369;28;20384;-62
2023/05/07 10:55:03;;;;;;;4.13;3.72;;;18.40;99.90;;;;;;5075643;28;20164;-61
2023/05/07 10:57:30;;;;;;;4.45;3.33;;;18.50;99.90;;;;;;5075279;28;20502;-61
2023/05/07 10:59:59;;;;;;;4.20;3.20;;;18.60;99.90;;;;;;5075273;28;20132;-60
2023/05/07 11:02:30;;;;;;;4.50;3.60;;;18.70;99.90;;;;;;5075722;28;20052;-61
2023/05/07 11:05:05;;;;;;;4.80;3.83;;;18.80;99.90;;;;;;5075252;28;20040;-60
2023/05/07 11:07:33;;;;;;;3.70;3.33;;;18.70;99.90;;;;;;5094814;28;20039;-60
2023/05/07 11:10:09;;;;;;;4.15;3.67;;;18.60;99.90;;;;;;5094958;28;20116;-60
2023/05/07 11:12:45;;;;;;;4.03;3.28;;;18.70;99.90;;;;;;5094441;28;20505;-60
2023/05/07 11:15:18;;;;;;;4.15;3.38;;;18.80;99.90;;;;;;5094533;28;20040;-61
2023/05/07 11:17:45;;;;;;;4.68;3.90;;;18.80;99.90;;;;;;5094719;28;20109;-61
2023/05/07 11:20:12;;;;;;;4.18;3.38;;;18.70;99.90;;;;;;5094619;28;20471;-61
2023/05/07 11:22:53;;;;;;;8.35;3.67;;;18.70;99.90;;;;;;5095109;28;20044;-62
2023/05/07 11:25:51;;;;;;;5.30;3.15;;;18.70;99.90;;;;;;5084760;28;20047;-60
2023/05/07 11:28:21;;;;;;;3.78;3.20;;;18.80;99.90;;;;;;5085351;28;20737;-61
2023/05/07 11:30:58;;;;;;;5.47;4.38;;;18.70;99.90;;;;;;5092102;28;20133;-60
2023/05/07 11:33:25;;;;;;;4.43;3.90;;;18.70;99.90;;;;;;5076881;28;20059;-60
2023/05/07 11:35:54;;;;;;;5.13;4.05;;;18.80;99.90;;;;;;5078804;28;20044;-60
2023/05/07 11:38:25;;;;;;;6.85;4.03;;;18.80;99.90;;;;;;5078695;28;20071;-61
2023/05/07 11:40:52;;;;;;;4.97;3.78;;;18.90;99.90;;;;;;5078726;28;20134;-60
2023/05/07 11:43:18;;;;;;;4.50;4.10;;;18.90;99.90;;;;;;5096729;28;20523;-61
2023/05/07 11:45:46;;;;;;;4.85;4.35;;;19.00;99.90;;;;;;5096518;28;20119;-62
2023/05/07 11:48:13;;;;;;;4.38;3.70;;;19.00;99.90;;;;;;5094608;28;20047;-60
2023/05/07 11:50:39;;;;;;;5.57;3.85;;;19.10;99.90;;;;;;5087708;28;20048;-61
2023/05/07 11:53:06;;;;;;;5.65;3.63;;;19.00;99.90;;;;;;5078604;28;20109;-61
2023/05/07 11:55:33;;;;;;;4.45;3.13;;;19.10;99.90;;;;;;5096462;28;20114;-61
2023/05/07 11:58:00;;;;;;;4.55;3.20;;;19.20;99.90;;;;;;5096469;28;20047;-62
2023/05/07 12:00:27;;;;;;;8.73;3.85;;;19.30;99.90;;;;;;5096407;28;20478;-62
2023/05/07 12:02:53;;;;;;;4.57;3.92;;;19.30;99.90;;;;;;5096530;28;20068;-62
2023/05/07 12:05:20;;;;;;;5.63;4.47;;;19.30;99.90;;;;;;5078298;28;20483;-62
2023/05/07 12:07:47;;;;;;;5.32;4.60;;;19.30;99.90;;;;;;5096368;28;20048;-61
2023/05/07 12:10:14;;;;;;;5.38;4.13;;;19.10;99.90;;;;;;5096003;28;20051;-61
2023/05/07 12:12:45;;;;;;;4.93;4.32;;;19.20;99.90;;;;;;5096134;28;20044;-63
2023/05/07 12:15:11;;;;;;;4.63;4.22;;;19.20;99.90;;;;;;5096349;28;20399;-61
2023/05/07 12:17:39;;;;;;;4.85;4.20;;;19.20;99.90;;;;;;5096043;28;20086;-61
2023/05/07 12:20:06;;;;;;;4.75;4.00;;;19.20;99.90;;;;;;5096181;28;20085;-61
2023/05/07 12:22:32;;;;;;;4.13;3.72;;;19.30;99.90;;;;;;5096026;28;20044;-62
2023/05/07 12:25:02;;;;;;;5.28;3.80;;;19.50;99.90;;;;;;5098171;28;20102;-62
2023/05/07 12:27:30;;;;;;;4.18;3.50;;;19.60;99.90;;;;;;5115676;28;20474;-62
2023/05/07 12:29:57;;;;;;;4.50;3.63;;;19.70;99.90;;;;;;5106870;28;20082;-62
2023/05/07 12:32:24;;;;;;;3.90;3.47;;;19.70;99.90;;;;;;5095813;28;20077;-60
2023/05/07 12:34:50;;;;;;;4.93;3.85;;;19.80;99.90;;;;;;5095839;28;20040;-62
2023/05/07 12:37:19;;;;;;;4.88;3.58;;;19.80;99.90;;;;;;5077633;28;20467;-61
2023/05/07 12:39:46;;;;;;;8.27;5.88;;;19.70;99.90;;;;;;5077578;28;20052;-58
2023/05/07 12:42:13;;;;;;;7.07;4.70;;;19.70;99.90;;;;;;5095728;28;20364;-61
2023/05/07 12:44:40;;;;;;;4.28;3.60;;;19.80;99.90;;;;;;5076651;28;20044;-62
2023/05/07 12:47:07;;;;;;;4.50;4.00;;;19.80;99.90;;;;;;5096231;28;20390;-62
2023/05/07 12:49:34;;;;;;;6.38;4.35;;;19.80;99.90;;;;;;5096041;28;20400;-63